sensor_id;sensor_type;location;lat;lon;timestamp;pressure;altitude;pressure_sealevel;temperature;humidity
48882;BME280;57063;51.406;-2.402;2023-01-29T00:01:27;102027.34;;;3.68;100.00
48882;BME280;57063;51.406;-2.402;2023-01-29T00:03:53;102027.34;;;3.68;100.00
48882;BME280;57063;51.406;-2.402;2023-01-29T00:06:18;102015.47;;;3.64;100.00
48882;BME280;57063;51.406;-2.402;2023-01-29T00:08:44;102018.00;;;3.65;100.00
48882;BME280;57063;51.406;-2.402;2023-01-29T00:11:11;102009.53;;;3.59;100.00
48882;BME280;57063;51.406;-2.402;2023-01-29T00:13:37;102016.31;;;3.68;100.00
48882;BME280;57063;51.406;-2.402;2023-01-29T00:16:03;102023.94;;;3.72;100.00
48882;BME280;57063;51.406;-2.402;2023-01-29T00:18:29;102016.28;;;3.74;100.00
48882;BME280;57063;51.406;-2.402;2023-01-29T00:20:55;102012.91;;;3.64;100.00
48882;BME280;57063;51.406;-2.402;2023-01-29T00:23:21;102005.25;;;3.64;100.00
48882;BME280;57063;51.406;-2.402;2023-01-29T00:25:47;102003.56;;;3.66;100.00
48882;BME280;57063;51.406;-2.402;2023-01-29T00:28:13;101995.03;;;3.62;100.00
48882;BME280;57063;51.406;-2.402;2023-01-29T00:30:39;102022.22;;;3.80;100.00
48882;BME280;57063;51.406;-2.402;2023-01-29T00:33:05;102022.25;;;3.71;100.00
48882;BME280;57063;51.406;-2.402;2023-01-29T00:35:31;102002.72;;;3.61;100.00
48882;BME280;57063;51.406;-2.402;2023-01-29T00:37:57;102017.16;;;3.71;100.00
48882;BME280;57063;51.406;-2.402;2023-01-29T00:40:24;101988.22;;;3.63;100.00
48882;BME280;57063;51.406;-2.402;2023-01-29T00:42:50;102021.38;;;3.77;100.00
48882;BME280;57063;51.406;-2.402;2023-01-29T00:45:34;102035.00;;;3.79;100.00
48882;BME280;57063;51.406;-2.402;2023-01-29T00:48:04;102008.66;;;3.60;100.00
48882;BME280;57063;51.406;-2.402;2023-01-29T00:50:30;102010.31;;;3.76;100.00
48882;BME280;57063;51.406;-2.402;2023-01-29T00:52:56;102023.94;;;3.75;100.00
48882;BME280;57063;51.406;-2.402;2023-01-29T00:55:22;102008.66;;;3.66;100.00
48882;BME280;57063;51.406;-2.402;2023-01-29T00:57:48;102001.06;;;3.49;100.00
48882;BME280;57063;51.406;-2.402;2023-01-29T01:00:16;102018.00;;;3.69;100.00
48882;BME280;57063;51.406;-2.402;2023-01-29T01:02:42;102006.94;;;3.65;100.00
48882;BME280;57063;51.406;-2.402;2023-01-29T01:05:27;101976.38;;;3.45;100.00
48882;BME280;57063;51.406;-2.402;2023-01-29T01:07:56;101983.19;;;3.45;100.00
48882;BME280;57063;51.406;-2.402;2023-01-29T01:10:25;102010.34;;;3.67;100.00
48882;BME280;57063;51.406;-2.402;2023-01-29T01:12:58;101983.19;;;3.45;100.00
48882;BME280;57063;51.406;-2.402;2023-01-29T01:15:24;102011.22;;;3.64;100.00
48882;BME280;57063;51.406;-2.402;2023-01-29T01:17:55;101978.09;;;3.38;100.00
48882;BME280;57063;51.406;-2.402;2023-01-29T01:20:21;101969.63;;;3.33;100.00
48882;BME280;57063;51.406;-2.402;2023-01-29T01:22:47;101992.56;;;3.47;100.00
48882;BME280;57063;51.406;-2.402;2023-01-29T01:25:13;101977.22;;;3.47;100.00
48882;BME280;57063;51.406;-2.402;2023-01-29T01:27:39;101968.72;;;3.43;100.00
48882;BME280;57063;51.406;-2.402;2023-01-29T01:30:09;101984.84;;;3.64;100.00
48882;BME280;57063;51.406;-2.402;2023-01-29T01:32:35;101974.66;;;3.61;100.00
48882;BME280;57063;51.406;-2.402;2023-01-29T01:35:01;101966.13;;;3.59;100.00
48882;BME280;57063;51.406;-2.402;2023-01-29T01:37:26;101967.81;;;3.60;100.00
48882;BME280;57063;51.406;-2.402;2023-01-29T01:39:52;101975.44;;;3.72;100.00
48882;BME280;57063;51.406;-2.402;2023-01-29T01:42:22;101980.47;;;3.84;100.00
48882;BME280;57063;51.406;-2.402;2023-01-29T01:44:56;101976.25;;;3.83;100.00
48882;BME280;57063;51.406;-2.402;2023-01-29T01:47:30;101958.44;;;3.67;100.00
48882;BME280;57063;51.406;-2.402;2023-01-29T01:50:05;101990.69;;;3.91;100.00
48882;BME280;57063;51.406;-2.402;2023-01-29T01:52:35;101969.47;;;3.76;100.00
48882;BME280;57063;51.406;-2.402;2023-01-29T01:55:03;101986.38;;;3.99;100.00
48882;BME280;57063;51.406;-2.402;2023-01-29T01:57:31;101968.53;;;3.93;100.00
48882;BME280;57063;51.406;-2.402;2023-01-29T02:00:13;101956.63;;;3.87;100.00
48882;BME280;57063;51.406;-2.402;2023-01-29T02:02:41;101966.88;;;3.84;100.00
48882;BME280;57063;51.406;-2.402;2023-01-29T02:05:26;101975.28;;;4.00;100.00
48882;BME280;57063;51.406;-2.402;2023-01-29T02:08:12;101957.50;;;3.84;100.00
48882;BME280;57063;51.406;-2.402;2023-01-29T02:10:57;101964.28;;;3.89;100.00
48882;BME280;57063;51.406;-2.402;2023-01-29T02:13:23;101957.47;;;3.91;100.00
48882;BME280;57063;51.406;-2.402;2023-01-29T02:15:48;101954.09;;;3.82;100.00
48882;BME280;57063;51.406;-2.402;2023-01-29T02:18:19;101950.66;;;3.93;100.00
48882;BME280;57063;51.406;-2.402;2023-01-29T02:21:07;101951.47;;;3.96;100.00
48882;BME280;57063;51.406;-2.402;2023-01-29T02:32:16;101946.19;;;4.25;100.00
48882;BME280;57063;51.406;-2.402;2023-01-29T02:40:40;101933.47;;;4.16;100.00
48882;BME280;57063;51.406;-2.402;2023-01-29T02:52:48;101914.00;;;3.98;100.00
48882;BME280;57063;51.406;-2.402;2023-01-29T03:02:08;101921.47;;;4.26;100.00
48882;BME280;57063;51.406;-2.402;2023-01-29T03:04:48;101885.94;;;3.94;100.00
48882;BME280;57063;51.406;-2.402;2023-01-29T03:08:08;101900.28;;;4.15;100.00
48882;BME280;57063;51.406;-2.402;2023-01-29T03:11:12;101893.41;;;4.18;100.00
48882;BME280;57063;51.406;-2.402;2023-01-29T03:14:21;101916.34;;;4.27;100.00
48882;BME280;57063;51.406;-2.402;2023-01-29T03:17:20;101923.13;;;4.35;100.00
48882;BME280;57063;51.406;-2.402;2023-01-29T03:20:49;101891.75;;;4.13;100.00
48882;BME280;57063;51.406;-2.402;2023-01-29T03:24:07;101893.44;;;4.15;100.00
48882;BME280;57063;51.406;-2.402;2023-01-29T03:34:23;101902.00;;;4.13;100.00
48882;BME280;57063;51.406;-2.402;2023-01-29T03:40:17;101870.53;;;4.03;100.00
48882;BME280;57063;51.406;-2.402;2023-01-29T03:43:13;101885.81;;;4.12;100.00
48882;BME280;57063;51.406;-2.402;2023-01-29T03:46:28;101885.03;;;4.02;100.00
48882;BME280;57063;51.406;-2.402;2023-01-29T03:52:35;101899.38;;;4.20;100.00
48882;BME280;57063;51.406;-2.402;2023-01-29T03:56:00;101897.59;;;4.28;100.00
48882;BME280;57063;51.406;-2.402;2023-01-29T04:01:58;101861.94;;;4.13;100.00
48882;BME280;57063;51.406;-2.402;2023-01-29T04:04:38;101855.25;;;3.97;100.00
48882;BME280;57063;51.406;-2.402;2023-01-29T04:07:21;101861.97;;;4.10;100.00
48882;BME280;57063;51.406;-2.402;2023-01-29T04:10:07;101867.06;;;4.13;100.00
48882;BME280;57063;51.406;-2.402;2023-01-29T04:12:46;101857.72;;;4.12;100.00
48882;BME280;57063;51.406;-2.402;2023-01-29T04:15:26;101861.91;;;4.16;100.00
48882;BME280;57063;51.406;-2.402;2023-01-29T04:18:05;101867.84;;;4.23;100.00
48882;BME280;57063;51.406;-2.402;2023-01-29T04:20:39;101881.44;;;4.25;100.00
48882;BME280;57063;51.406;-2.402;2023-01-29T04:23:26;101863.63;;;4.14;100.00
48882;BME280;57063;51.406;-2.402;2023-01-29T04:32:14;101861.88;;;4.19;100.00
48882;BME280;57063;51.406;-2.402;2023-01-29T04:37:55;101840.69;;;4.08;100.00
48882;BME280;57063;51.406;-2.402;2023-01-29T04:40:59;101875.41;;;4.34;100.00
48882;BME280;57063;51.406;-2.402;2023-01-29T04:43:37;101861.00;;;4.25;100.00
48882;BME280;57063;51.406;-2.402;2023-01-29T04:46:40;101872.03;;;4.28;100.00
48882;BME280;57063;51.406;-2.402;2023-01-29T04:55:20;101861.78;;;4.32;100.00
48882;BME280;57063;51.406;-2.402;2023-01-29T04:58:13;101858.41;;;4.29;100.00
48882;BME280;57063;51.406;-2.402;2023-01-29T05:00:44;101818.56;;;4.05;100.00
48882;BME280;57063;51.406;-2.402;2023-01-29T05:03:20;101829.53;;;4.17;100.00
48882;BME280;57063;51.406;-2.402;2023-01-29T05:06:06;101810.84;;;4.13;100.00
48882;BME280;57063;51.406;-2.402;2023-01-29T05:08:39;101824.34;;;4.26;100.00
48882;BME280;57063;51.406;-2.402;2023-01-29T05:11:08;101822.75;;;4.14;100.00
48882;BME280;57063;51.406;-2.402;2023-01-29T05:13:49;101843.94;;;4.25;100.00
48882;BME280;57063;51.406;-2.402;2023-01-29T05:16:32;101818.50;;;4.12;100.00
48882;BME280;57063;51.406;-2.402;2023-01-29T05:19:18;101790.53;;;3.95;100.00
48882;BME280;57063;51.406;-2.402;2023-01-29T05:21:48;101809.25;;;3.97;100.00
48882;BME280;57063;51.406;-2.402;2023-01-29T05:24:26;101799.91;;;3.96;100.00
48882;BME280;57063;51.406;-2.402;2023-01-29T05:26:53;101817.75;;;4.05;100.00
48882;BME280;57063;51.406;-2.402;2023-01-29T05:29:46;101817.69;;;4.08;100.00
48882;BME280;57063;51.406;-2.402;2023-01-29T05:32:12;101816.88;;;4.06;100.00
48882;BME280;57063;51.406;-2.402;2023-01-29T05:34:41;101805.03;;;3.94;100.00
48882;BME280;57063;51.406;-2.402;2023-01-29T05:37:10;101796.53;;;3.95;100.00
48882;BME280;57063;51.406;-2.402;2023-01-29T05:39:38;101823.56;;;4.19;100.00
48882;BME280;57063;51.406;-2.402;2023-01-29T05:42:06;101787.19;;;3.93;100.00
48882;BME280;57063;51.406;-2.402;2023-01-29T05:44:32;101783.72;;;3.97;100.00
48882;BME280;57063;51.406;-2.402;2023-01-29T05:46:58;101785.34;;;4.07;100.00
48882;BME280;57063;51.406;-2.402;2023-01-29T05:49:34;101762.44;;;3.96;100.00
48882;BME280;57063;51.406;-2.402;2023-01-29T05:52:05;101776.03;;;4.03;100.00
48882;BME280;57063;51.406;-2.402;2023-01-29T05:54:52;101786.94;;;4.19;100.00
48882;BME280;57063;51.406;-2.402;2023-01-29T05:57:51;101765.81;;;4.01;100.00
48882;BME280;57063;51.406;-2.402;2023-01-29T06:00:51;101764.88;;;4.07;100.00
48882;BME280;57063;51.406;-2.402;2023-01-29T06:03:28;101767.47;;;4.05;100.00
48882;BME280;57063;51.406;-2.402;2023-01-29T06:06:30;101799.66;;;4.23;100.00
48882;BME280;57063;51.406;-2.402;2023-01-29T06:09:21;101755.66;;;3.94;100.00
48882;BME280;57063;51.406;-2.402;2023-01-29T06:12:03;101788.66;;;4.18;100.00
48882;BME280;57063;51.406;-2.402;2023-01-29T06:14:57;101763.22;;;4.06;100.00
48882;BME280;57063;51.406;-2.402;2023-01-29T06:17:28;101777.59;;;4.18;100.00
48882;BME280;57063;51.406;-2.402;2023-01-29T06:19:54;101763.22;;;4.06;100.00
48882;BME280;57063;51.406;-2.402;2023-01-29T06:22:19;101751.34;;;3.97;100.00
48882;BME280;57063;51.406;-2.402;2023-01-29T06:24:45;101756.41;;;4.05;100.00
48882;BME280;57063;51.406;-2.402;2023-01-29T06:27:10;101769.16;;;4.08;100.00
48882;BME280;57063;51.406;-2.402;2023-01-29T06:29:36;101751.34;;;3.99;100.00
48882;BME280;57063;51.406;-2.402;2023-01-29T06:32:01;101734.47;;;3.85;100.00
48882;BME280;57063;51.406;-2.402;2023-01-29T06:34:27;101733.59;;;3.86;100.00
48882;BME280;57063;51.406;-2.402;2023-01-29T06:36:52;101752.22;;;3.98;100.00
48882;BME280;57063;51.406;-2.402;2023-01-29T06:39:18;101744.53;;;4.01;100.00
48882;BME280;57063;51.406;-2.402;2023-01-29T06:41:43;101737.69;;;4.00;100.00
48882;BME280;57063;51.406;-2.402;2023-01-29T06:44:10;101757.22;;;4.10;100.00
48882;BME280;57063;51.406;-2.402;2023-01-29T06:46:36;101741.09;;;4.05;100.00
48882;BME280;57063;51.406;-2.402;2023-01-29T06:49:02;101742.81;;;4.03;100.00
48882;BME280;57063;51.406;-2.402;2023-01-29T06:51:27;101749.59;;;4.04;100.00
48882;BME280;57063;51.406;-2.402;2023-01-29T06:53:53;101714.88;;;3.84;100.00
48882;BME280;57063;51.406;-2.402;2023-01-29T06:56:20;101715.66;;;3.90;100.00
48882;BME280;57063;51.406;-2.402;2023-01-29T06:58:46;101728.38;;;3.97;100.00
48882;BME280;57063;51.406;-2.402;2023-01-29T07:01:12;101747.06;;;4.02;100.00
48882;BME280;57063;51.406;-2.402;2023-01-29T07:03:38;101730.94;;;3.96;100.00
48882;BME280;57063;51.406;-2.402;2023-01-29T07:06:05;101746.25;;;3.99;100.00
48882;BME280;57063;51.406;-2.402;2023-01-29T07:08:35;101730.94;;;3.96;100.00
48882;BME280;57063;51.406;-2.402;2023-01-29T07:11:01;101725.09;;;3.86;100.00
48882;BME280;57063;51.406;-2.402;2023-01-29T07:13:27;101736.91;;;3.96;100.00
48882;BME280;57063;51.406;-2.402;2023-01-29T07:15:52;101742.84;;;3.98;100.00
48882;BME280;57063;51.406;-2.402;2023-01-29T07:18:18;101727.59;;;3.88;100.00
48882;BME280;57063;51.406;-2.402;2023-01-29T07:20:43;101747.91;;;4.03;100.00
48882;BME280;57063;51.406;-2.402;2023-01-29T07:23:13;101726.69;;;3.98;100.00
48882;BME280;57063;51.406;-2.402;2023-01-29T07:25:39;101751.19;;;4.14;100.00
48882;BME280;57063;51.406;-2.402;2023-01-29T07:28:05;101744.50;;;4.05;100.00
48882;BME280;57063;51.406;-2.402;2023-01-29T12:58:46;101514.25;;;8.18;100.00
48882;BME280;57063;51.406;-2.402;2023-01-29T13:09:16;101479.63;;;8.00;100.00
48882;BME280;57063;51.406;-2.402;2023-01-29T13:31:31;101476.91;;;8.04;100.00
48882;BME280;57063;51.406;-2.402;2023-01-29T13:43:37;101448.75;;;8.01;100.00
48882;BME280;57063;51.406;-2.402;2023-01-29T13:46:31;101432.59;;;7.98;100.00
48882;BME280;57063;51.406;-2.402;2023-01-29T14:02:40;101436.59;;;8.33;100.00
48882;BME280;57063;51.406;-2.402;2023-01-29T14:13:47;101434.72;;;8.11;100.00
48882;BME280;57063;51.406;-2.402;2023-01-29T14:50:48;101401.13;;;7.61;100.00
48882;BME280;57063;51.406;-2.402;2023-01-29T15:06:22;101398.69;;;7.85;100.00
48882;BME280;57063;51.406;-2.402;2023-01-29T15:09:13;101385.84;;;7.85;100.00
48882;BME280;57063;51.406;-2.402;2023-01-29T15:12:02;101391.50;;;7.96;100.00
48882;BME280;57063;51.406;-2.402;2023-01-29T15:19:42;101375.09;;;8.00;100.00
48882;BME280;57063;51.406;-2.402;2023-01-29T15:22:16;101394.75;;;8.01;100.00
48882;BME280;57063;51.406;-2.402;2023-01-29T15:35:14;101385.59;;;7.64;100.00
48882;BME280;57063;51.406;-2.402;2023-01-29T15:38:50;101359.47;;;7.22;100.00
48882;BME280;57063;51.406;-2.402;2023-01-29T15:42:25;101353.41;;;7.24;100.00
48882;BME280;57063;51.406;-2.402;2023-01-29T15:45:23;101348.88;;;7.03;100.00
48882;BME280;57063;51.406;-2.402;2023-01-29T15:48:16;101346.41;;;7.00;100.00
48882;BME280;57063;51.406;-2.402;2023-01-29T15:50:58;101356.38;;;7.09;100.00
48882;BME280;57063;51.406;-2.402;2023-01-29T15:53:47;101342.31;;;6.93;100.00
48882;BME280;57063;51.406;-2.402;2023-01-29T15:59:46;101323.03;;;6.47;100.00
48882;BME280;57063;51.406;-2.402;2023-01-29T16:02:31;101342.41;;;6.57;100.00
48882;BME280;57063;51.406;-2.402;2023-01-29T16:05:06;101309.59;;;6.37;100.00
48882;BME280;57063;51.406;-2.402;2023-01-29T16:07:35;101307.16;;;6.32;100.00
48882;BME280;57063;51.406;-2.402;2023-01-29T16:10:02;101323.91;;;6.46;100.00
48882;BME280;57063;51.406;-2.402;2023-01-29T16:12:29;101339.13;;;6.52;100.00
48882;BME280;57063;51.406;-2.402;2023-01-29T16:14:56;101338.44;;;6.45;100.00
48882;BME280;57063;51.406;-2.402;2023-01-29T16:17:29;101334.16;;;6.46;100.00
48882;BME280;57063;51.406;-2.402;2023-01-29T16:20:01;101344.81;;;6.63;100.00
48882;BME280;57063;51.406;-2.402;2023-01-29T16:22:34;101317.72;;;6.53;100.00
48882;BME280;57063;51.406;-2.402;2023-01-29T16:25:12;101348.28;;;6.62;100.00
48882;BME280;57063;51.406;-2.402;2023-01-29T16:27:39;101329.84;;;6.46;100.00
48882;BME280;57063;51.406;-2.402;2023-01-29T16:30:17;101315.25;;;6.50;100.00
48882;BME280;57063;51.406;-2.402;2023-01-29T16:32:44;101305.78;;;6.52;100.00
48882;BME280;57063;51.406;-2.402;2023-01-29T16:35:14;101327.28;;;6.46;100.00
48882;BME280;57063;51.406;-2.402;2023-01-29T16:37:41;101324.81;;;6.43;100.00
48882;BME280;57063;51.406;-2.402;2023-01-29T16:40:29;101311.38;;;6.35;100.00
48882;BME280;57063;51.406;-2.402;2023-01-29T16:46:04;101328.72;;;6.24;100.00
48882;BME280;57063;51.406;-2.402;2023-01-29T16:48:37;101330.97;;;6.03;100.00
48882;BME280;57063;51.406;-2.402;2023-01-29T16:54:05;101323.81;;;5.78;100.00
48882;BME280;57063;51.406;-2.402;2023-01-29T16:56:32;101299.81;;;5.45;100.00
48882;BME280;57063;51.406;-2.402;2023-01-29T16:58:59;101304.31;;;5.34;100.00
48882;BME280;57063;51.406;-2.402;2023-01-29T17:01:27;101298.59;;;5.24;100.00
48882;BME280;57063;51.406;-2.402;2023-01-29T17:04:02;101280.81;;;5.17;100.00
48882;BME280;57063;51.406;-2.402;2023-01-29T17:06:30;101288.00;;;5.40;100.00
48882;BME280;57063;51.406;-2.402;2023-01-29T17:08:57;101271.56;;;5.09;100.00
48882;BME280;57063;51.406;-2.402;2023-01-29T17:11:37;101277.56;;;5.10;100.00
48882;BME280;57063;51.406;-2.402;2023-01-29T17:14:06;101279.31;;;5.06;100.00
48882;BME280;57063;51.406;-2.402;2023-01-29T17:16:34;101298.41;;;4.90;100.00
48882;BME280;57063;51.406;-2.402;2023-01-29T17:19:00;101285.25;;;4.66;100.00
48882;BME280;57063;51.406;-2.402;2023-01-29T17:21:28;101298.19;;;4.59;100.00
48882;BME280;57063;51.406;-2.402;2023-01-29T17:23:54;101303.31;;;4.59;100.00
48882;BME280;57063;51.406;-2.402;2023-01-29T17:26:20;101320.25;;;4.63;100.00
48882;BME280;57063;51.406;-2.402;2023-01-29T17:28:48;101323.63;;;4.66;100.00
48882;BME280;57063;51.406;-2.402;2023-01-29T17:31:14;101328.72;;;4.66;100.00
48882;BME280;57063;51.406;-2.402;2023-01-29T17:33:41;101328.72;;;4.66;100.00
48882;BME280;57063;51.406;-2.402;2023-01-29T17:36:15;101310.09;;;4.58;100.00
48882;BME280;57063;51.406;-2.402;2023-01-29T17:38:41;101315.88;;;4.68;100.00
48882;BME280;57063;51.406;-2.402;2023-01-29T17:43:44;101326.31;;;5.02;100.00
48882;BME280;57063;51.406;-2.402;2023-01-29T17:46:14;101355.72;;;5.25;100.00
48882;BME280;57063;51.406;-2.402;2023-01-29T17:48:45;101347.97;;;5.29;100.00
48882;BME280;57063;51.406;-2.402;2023-01-29T17:51:15;101317.25;;;5.28;100.00
48882;BME280;57063;51.406;-2.402;2023-01-29T17:53:42;101332.16;;;5.49;100.00
48882;BME280;57063;51.406;-2.402;2023-01-29T17:56:24;101307.50;;;5.45;100.00
48882;BME280;57063;51.406;-2.402;2023-01-29T17:59:00;101315.81;;;5.55;100.00
48882;BME280;57063;51.406;-2.402;2023-01-29T18:01:26;101299.84;;;5.44;100.00
48882;BME280;57063;51.406;-2.402;2023-01-29T18:03:51;101327.78;;;5.54;100.00
48882;BME280;57063;51.406;-2.402;2023-01-29T18:06:26;101326.31;;;5.44;100.00
48882;BME280;57063;51.406;-2.402;2023-01-29T18:08:52;101333.81;;;5.52;100.00
48882;BME280;57063;51.406;-2.402;2023-01-29T18:11:18;101352.44;;;5.58;100.00
48882;BME280;57063;51.406;-2.402;2023-01-29T18:13:43;101369.28;;;5.69;100.00
48882;BME280;57063;51.406;-2.402;2023-01-29T18:16:09;101372.13;;;5.56;100.00
48882;BME280;57063;51.406;-2.402;2023-01-29T18:18:34;101372.16;;;5.55;100.00
48882;BME280;57063;51.406;-2.402;2023-01-29T18:21:00;101373.84;;;5.56;100.00
48882;BME280;57063;51.406;-2.402;2023-01-29T18:23:26;101378.06;;;5.58;100.00
48882;BME280;57063;51.406;-2.402;2023-01-29T18:25:53;101383.06;;;5.63;100.00
48882;BME280;57063;51.406;-2.402;2023-01-29T18:28:22;101378.97;;;5.56;100.00
48882;BME280;57063;51.406;-2.402;2023-01-29T18:30:48;101402.31;;;5.81;100.00
48882;BME280;57063;51.406;-2.402;2023-01-29T18:33:14;101375.28;;;5.68;100.00
48882;BME280;57063;51.406;-2.402;2023-01-29T18:35:41;101378.66;;;5.70;100.00
48882;BME280;57063;51.406;-2.402;2023-01-29T18:38:07;101396.50;;;5.73;100.00
48882;BME280;57063;51.406;-2.402;2023-01-29T18:40:33;101387.91;;;5.75;100.00
48882;BME280;57063;51.406;-2.402;2023-01-29T18:42:58;101387.34;;;5.63;100.00
48882;BME280;57063;51.406;-2.402;2023-01-29T18:45:26;101415.72;;;5.92;100.00
48882;BME280;57063;51.406;-2.402;2023-01-29T18:47:52;101421.69;;;5.94;100.00
48882;BME280;57063;51.406;-2.402;2023-01-29T18:50:17;101398.94;;;5.79;100.00
48882;BME280;57063;51.406;-2.402;2023-01-29T18:52:43;101397.19;;;5.81;100.00
48882;BME280;57063;51.406;-2.402;2023-01-29T18:55:09;101398.78;;;5.85;100.00
48882;BME280;57063;51.406;-2.402;2023-01-29T18:57:35;101394.47;;;5.87;100.00
48882;BME280;57063;51.406;-2.402;2023-01-29T19:00:02;101390.38;;;5.80;100.00
48882;BME280;57063;51.406;-2.402;2023-01-29T19:02:28;101394.47;;;5.87;100.00
48882;BME280;57063;51.406;-2.402;2023-01-29T19:04:54;101353.13;;;5.65;100.00
48882;BME280;57063;51.406;-2.402;2023-01-29T19:07:19;101339.66;;;5.58;100.00
48882;BME280;57063;51.406;-2.402;2023-01-29T19:09:45;101358.84;;;5.78;100.00
48882;BME280;57063;51.406;-2.402;2023-01-29T19:12:11;101348.94;;;5.63;100.00
48882;BME280;57063;51.406;-2.402;2023-01-29T19:14:36;101347.44;;;5.91;100.00
48882;BME280;57063;51.406;-2.402;2023-01-29T19:17:02;101350.19;;;5.82;100.00
48882;BME280;57063;51.406;-2.402;2023-01-29T19:19:30;101346.59;;;5.91;100.00
48882;BME280;57063;51.406;-2.402;2023-01-29T19:21:55;101344.09;;;5.88;100.00
48882;BME280;57063;51.406;-2.402;2023-01-29T19:24:21;101346.72;;;5.85;100.00
48882;BME280;57063;51.406;-2.402;2023-01-29T19:26:47;101331.63;;;5.72;100.00
48882;BME280;57063;51.406;-2.402;2023-01-29T19:29:14;101334.09;;;5.77;100.00
48882;BME280;57063;51.406;-2.402;2023-01-29T19:31:41;101355.13;;;5.91;100.00
48882;BME280;57063;51.406;-2.402;2023-01-29T19:34:06;101328.13;;;5.76;100.00
48882;BME280;57063;51.406;-2.402;2023-01-29T19:36:33;101317.69;;;5.84;100.00
48882;BME280;57063;51.406;-2.402;2023-01-29T19:38:59;101290.63;;;5.74;100.00
48882;BME280;57063;51.406;-2.402;2023-01-29T19:41:24;101308.41;;;5.80;100.00
48882;BME280;57063;51.406;-2.402;2023-01-29T19:43:50;101301.59;;;5.79;100.00
48882;BME280;57063;51.406;-2.402;2023-01-29T19:46:15;101317.56;;;5.90;100.00
48882;BME280;57063;51.406;-2.402;2023-01-29T19:48:42;101328.59;;;5.95;100.00
48882;BME280;57063;51.406;-2.402;2023-01-29T19:51:10;101330.16;;;5.99;100.00
48882;BME280;57063;51.406;-2.402;2023-01-29T19:53:38;101296.84;;;5.99;100.00
48882;BME280;57063;51.406;-2.402;2023-01-29T19:56:06;101303.50;;;6.08;100.00
48882;BME280;57063;51.406;-2.402;2023-01-29T19:58:33;101277.34;;;5.95;100.00
48882;BME280;57063;51.406;-2.402;2023-01-29T20:01:01;101280.63;;;6.00;100.00
48882;BME280;57063;51.406;-2.402;2023-01-29T20:03:27;101271.22;;;6.01;100.00
48882;BME280;57063;51.406;-2.402;2023-01-29T20:05:53;101272.88;;;6.02;100.00
48882;BME280;57063;51.406;-2.402;2023-01-29T20:08:19;101274.69;;;5.98;100.00
48882;BME280;57063;51.406;-2.402;2023-01-29T20:10:47;101296.69;;;6.07;100.00
48882;BME280;57063;51.406;-2.402;2023-01-29T20:13:14;101279.53;;;6.09;100.00
48882;BME280;57063;51.406;-2.402;2023-01-29T20:15:44;101287.88;;;6.17;100.00
48882;BME280;57063;51.406;-2.402;2023-01-29T20:18:10;101305.56;;;6.27;100.00
48882;BME280;57063;51.406;-2.402;2023-01-29T20:20:43;101287.72;;;6.24;100.00
48882;BME280;57063;51.406;-2.402;2023-01-29T20:23:10;101285.44;;;6.13;100.00
48882;BME280;57063;51.406;-2.402;2023-01-29T20:25:36;101286.31;;;6.12;100.00
48882;BME280;57063;51.406;-2.402;2023-01-29T20:28:09;101309.03;;;6.26;100.00
48882;BME280;57063;51.406;-2.402;2023-01-29T20:30:45;101313.94;;;6.35;100.00
48882;BME280;57063;51.406;-2.402;2023-01-29T20:33:11;101295.47;;;6.22;100.00
48882;BME280;57063;51.406;-2.402;2023-01-29T20:35:37;101297.81;;;6.30;100.00
48882;BME280;57063;51.406;-2.402;2023-01-29T20:38:03;101279.06;;;6.28;100.00
48882;BME280;57063;51.406;-2.402;2023-01-29T20:40:29;101282.47;;;6.28;100.00
48882;BME280;57063;51.406;-2.402;2023-01-29T20:42:55;101299.63;;;6.26;100.00
48882;BME280;57063;51.406;-2.402;2023-01-29T20:45:21;101317.25;;;6.38;100.00
48882;BME280;57063;51.406;-2.402;2023-01-29T20:47:47;101298.66;;;6.30;100.00
48882;BME280;57063;51.406;-2.402;2023-01-29T20:50:15;101329.03;;;6.46;100.00
48882;BME280;57063;51.406;-2.402;2023-01-29T20:52:41;101323.97;;;6.42;100.00
48882;BME280;57063;51.406;-2.402;2023-01-29T20:55:09;101308.28;;;6.22;100.00
48882;BME280;57063;51.406;-2.402;2023-01-29T20:57:36;101337.44;;;6.51;100.00
48882;BME280;57063;51.406;-2.402;2023-01-29T21:00:03;101335.78;;;6.48;100.00
48882;BME280;57063;51.406;-2.402;2023-01-29T21:02:29;101337.69;;;6.41;100.00
48882;BME280;57063;51.406;-2.402;2023-01-29T21:04:54;101327.59;;;6.35;100.00
48882;BME280;57063;51.406;-2.402;2023-01-29T21:07:20;101324.88;;;6.41;100.00
48882;BME280;57063;51.406;-2.402;2023-01-29T21:09:46;101324.00;;;6.41;100.00
48882;BME280;57063;51.406;-2.402;2023-01-29T21:12:11;101334.97;;;6.48;100.00
48882;BME280;57063;51.406;-2.402;2023-01-29T21:14:37;101327.97;;;6.53;100.00
48882;BME280;57063;51.406;-2.402;2023-01-29T21:17:02;101355.88;;;6.65;100.00
48882;BME280;57063;51.406;-2.402;2023-01-29T21:19:29;101336.47;;;6.56;100.00
48882;BME280;57063;51.406;-2.402;2023-01-29T21:21:55;101332.47;;;6.45;100.00
48882;BME280;57063;51.406;-2.402;2023-01-29T21:24:22;101317.00;;;6.48;100.00
48882;BME280;57063;51.406;-2.402;2023-01-29T21:26:48;101337.28;;;6.57;100.00
48882;BME280;57063;51.406;-2.402;2023-01-29T21:29:14;101309.34;;;6.46;100.00
48882;BME280;57063;51.406;-2.402;2023-01-29T21:31:40;101288.41;;;6.30;100.00
48882;BME280;57063;51.406;-2.402;2023-01-29T21:34:06;101319.47;;;6.51;100.00
48882;BME280;57063;51.406;-2.402;2023-01-29T21:36:33;101293.31;;;6.39;100.00
48882;BME280;57063;51.406;-2.402;2023-01-29T21:38:58;101328.56;;;6.64;100.00
48882;BME280;57063;51.406;-2.402;2023-01-29T21:41:24;101282.84;;;6.47;100.00
48882;BME280;57063;51.406;-2.402;2023-01-29T21:44:09;101285.19;;;6.55;100.00
48882;BME280;57063;51.406;-2.402;2023-01-29T21:46:35;101286.22;;;6.48;100.00
48882;BME280;57063;51.406;-2.402;2023-01-29T21:49:00;101274.13;;;6.53;100.00
48882;BME280;57063;51.406;-2.402;2023-01-29T21:51:26;101271.78;;;6.45;100.00
48882;BME280;57063;51.406;-2.402;2023-01-29T21:53:51;101272.38;;;6.55;100.00